Time;durP1;ratioP1;P1;durP2;ratioP2;P2;SDS_P1;SDS_P2;PMS_P1;PMS_P2;Temp;Humidity;BMP_temperature;BMP_pressure;BME280_temperature;BME280_humidity;BME280_pressure;Samples;Min_cycle;Max_cycle;Signal;HPM_P1;HPM_P2
2022/05/11 00:01:31;;;;;;;10.93;3.78;;;16.20;1.00;;;;;;5006375;28;25069;-70
2022/05/11 00:03:58;;;;;;;11.95;4.30;;;16.30;1.00;;;;;;5004448;28;25084;-68
2022/05/11 00:06:25;;;;;;;11.30;4.00;;;16.30;1.00;;;;;;5003233;28;25051;-68
2022/05/11 00:08:52;;;;;;;8.20;4.45;;;16.30;1.00;;;;;;5006038;28;25159;-69
2022/05/11 00:11:17;;;;;;;10.45;4.20;;;16.30;1.00;;;;;;5004325;28;25064;-69
2022/05/11 00:13:44;;;;;;;11.07;3.45;;;16.20;1.00;;;;;;5002510;28;25058;-69
2022/05/11 00:16:10;;;;;;;9.32;3.47;;;16.10;1.00;;;;;;5005173;28;25116;-69
2022/05/11 00:18:36;;;;;;;11.27;3.42;;;16.10;1.00;;;;;;5004430;28;25063;-69
2022/05/11 00:21:02;;;;;;;8.82;3.50;;;16.00;1.00;;;;;;5004686;28;25086;-70
2022/05/11 00:23:28;;;;;;;8.90;3.25;;;16.00;1.00;;;;;;5005758;28;25105;-70
2022/05/11 00:25:53;;;;;;;8.88;2.90;;;15.90;1.00;;;;;;5005643;28;25136;-69
2022/05/11 00:28:19;;;;;;;10.40;3.17;;;15.90;1.00;;;;;;5002329;28;25068;-71
2022/05/11 00:30:44;;;;;;;10.25;3.03;;;15.80;1.00;;;;;;5005027;28;25057;-69
2022/05/11 00:33:15;;;;;;;9.25;2.47;;;15.90;1.00;;;;;;5005601;28;25104;-68
2022/05/11 00:35:42;;;;;;;5.07;2.13;;;15.90;1.00;;;;;;5004619;28;25052;-69
2022/05/11 00:38:08;;;;;;;7.78;3.45;;;15.90;1.00;;;;;;5001858;28;25065;-69
2022/05/11 00:40:42;;;;;;;5.93;2.20;;;15.90;1.00;;;;;;5005706;28;25072;-69
2022/05/11 00:43:08;;;;;;;5.25;2.08;;;15.90;1.00;;;;;;5003016;28;25073;-69
2022/05/11 00:45:35;;;;;;;7.68;2.35;;;15.90;1.00;;;;;;5004265;28;25077;-69
2022/05/11 00:49:33;;;;;;;4.32;2.05;;;15.90;1.00;;;;;;5001381;28;25090;-71
2022/05/11 00:50:53;;;;;;;2.65;1.60;;;15.90;1.00;;;;;;5004737;28;25080;-69
2022/05/11 00:53:19;;;;;;;7.93;2.40;;;15.90;1.00;;;;;;5005612;28;25157;-69
2022/05/11 00:55:55;;;;;;;6.75;2.03;;;15.90;1.00;;;;;;5003050;28;25132;-69
2022/05/11 00:58:26;;;;;;;6.32;2.45;;;15.90;1.00;;;;;;5004130;28;25066;-69
2022/05/11 01:00:53;;;;;;;3.20;1.92;;;15.90;1.00;;;;;;5004849;28;25088;-69
2022/05/11 01:03:22;;;;;;;7.70;2.25;;;15.90;1.00;;;;;;5005283;28;25068;-71
2022/05/11 01:05:48;;;;;;;4.82;1.90;;;15.90;1.00;;;;;;5003247;28;25155;-70
2022/05/11 01:08:17;;;;;;;5.18;1.65;;;15.90;1.00;;;;;;5003515;28;25096;-68
2022/05/11 01:10:44;;;;;;;6.00;1.83;;;16.00;1.00;;;;;;5004359;28;25068;-69
2022/05/11 01:13:13;;;;;;;3.08;1.80;;;16.00;1.00;;;;;;5003204;28;25103;-69
2022/05/11 01:15:42;;;;;;;7.75;1.83;;;15.90;1.00;;;;;;5007476;28;25079;-68
2022/05/11 01:18:09;;;;;;;7.93;1.48;;;15.90;1.00;;;;;;5005808;28;25148;-69
2022/05/11 01:20:36;;;;;;;2.95;1.70;;;15.90;1.00;;;;;;5003434;28;25065;-70
2022/05/11 01:23:26;;;;;;;5.82;1.73;;;16.00;1.00;;;;;;5004962;28;25052;-69
2022/05/11 01:25:53;;;;;;;5.38;1.80;;;15.90;1.00;;;;;;5006333;28;25083;-70
2022/05/11 01:28:19;;;;;;;3.60;1.70;;;16.00;1.00;;;;;;5004656;28;25122;-71
2022/05/11 01:30:48;;;;;;;7.75;1.83;;;16.00;1.00;;;;;;5005268;28;25103;-70
2022/05/11 01:33:17;;;;;;;4.68;1.55;;;16.00;1.00;;;;;;5005608;28;25061;-69
2022/05/11 01:36:20;;;;;;;9.02;1.73;;;15.90;1.00;;;;;;5003620;28;25048;-70
2022/05/11 01:38:50;;;;;;;5.90;1.77;;;15.90;1.00;;;;;;5003016;28;25072;-71
2022/05/11 01:41:27;;;;;;;4.68;1.73;;;15.80;1.00;;;;;;5005042;28;25048;-68
2022/05/11 01:43:53;;;;;;;8.00;1.73;;;15.80;1.00;;;;;;5004727;28;25148;-71
2022/05/11 01:46:20;;;;;;;5.03;1.65;;;15.80;1.00;;;;;;5004766;28;25172;-70
2022/05/11 01:48:46;;;;;;;7.53;1.77;;;15.80;1.00;;;;;;5006748;28;25089;-69
2022/05/11 01:51:13;;;;;;;8.20;1.65;;;15.90;1.00;;;;;;5011724;28;25060;-69
2022/05/11 01:53:39;;;;;;;3.85;1.65;;;15.90;1.00;;;;;;5010796;28;25114;-70
2022/05/11 01:56:05;;;;;;;8.13;1.63;;;15.90;1.00;;;;;;5010621;28;25114;-69
2022/05/11 01:58:31;;;;;;;7.55;1.75;;;16.00;1.00;;;;;;5009750;28;25122;-68
2022/05/11 02:00:58;;;;;;;4.90;1.80;;;16.00;1.00;;;;;;5008867;28;25069;-71
2022/05/11 02:03:23;;;;;;;4.60;1.70;;;16.00;1.00;;;;;;5007893;28;25219;-70
2022/05/11 02:08:36;;;;;;;6.57;1.48;;;15.80;1.00;;;;;;5007089;28;25107;-71
2022/05/11 02:11:02;;;;;;;4.75;1.30;;;15.90;1.00;;;;;;5008269;28;25071;-69
2022/05/11 02:13:28;;;;;;;4.13;1.80;;;15.80;1.00;;;;;;5006271;28;25118;-69
2022/05/11 02:15:54;;;;;;;4.45;1.92;;;15.70;1.00;;;;;;5008653;28;25077;-70
2022/05/11 02:18:20;;;;;;;4.25;1.77;;;15.70;1.00;;;;;;5007754;28;25071;-69
2022/05/11 02:20:45;;;;;;;4.88;1.63;;;15.80;1.00;;;;;;5006819;28;25076;-70
2022/05/11 02:23:16;;;;;;;3.90;1.58;;;15.90;1.00;;;;;;5006975;28;25056;-69
2022/05/11 02:25:44;;;;;;;3.53;1.65;;;15.90;1.00;;;;;;5007686;28;25103;-71
2022/05/11 02:28:10;;;;;;;6.25;1.63;;;15.80;1.00;;;;;;5006743;28;25067;-69
2022/05/11 02:30:36;;;;;;;7.40;1.75;;;15.80;1.00;;;;;;5006889;28;25079;-69
2022/05/11 02:33:02;;;;;;;5.95;1.73;;;15.70;1.00;;;;;;5007594;28;25075;-69
2022/05/11 02:35:28;;;;;;;5.82;1.52;;;15.70;1.00;;;;;;5006559;28;25053;-71
2022/05/11 02:38:09;;;;;;;3.95;1.60;;;15.80;1.00;;;;;;5007536;28;25077;-69
2022/05/11 02:40:37;;;;;;;5.97;2.05;;;15.80;1.00;;;;;;5007476;28;25075;-70
2022/05/11 02:43:03;;;;;;;4.18;1.45;;;15.70;1.00;;;;;;5006140;28;25158;-69
2022/05/11 02:45:31;;;;;;;4.28;1.60;;;15.80;1.00;;;;;;5007110;28;25055;-69
2022/05/11 02:47:57;;;;;;;6.75;2.00;;;15.80;1.00;;;;;;5006021;28;25112;-70
2022/05/11 02:50:31;;;;;;;6.68;2.22;;;15.70;1.00;;;;;;5008859;28;25064;-69
2022/05/11 02:52:57;;;;;;;8.52;2.20;;;15.80;1.00;;;;;;5006630;28;25109;-71
2022/05/11 02:55:23;;;;;;;7.50;1.80;;;15.70;1.00;;;;;;5005124;28;25139;-70
2022/05/11 02:57:48;;;;;;;6.38;1.73;;;15.60;1.00;;;;;;5005776;28;25063;-70
2022/05/11 03:00:17;;;;;;;4.68;1.60;;;15.60;1.00;;;;;;5005310;28;25070;-70
2022/05/11 03:02:43;;;;;;;5.47;1.58;;;15.60;1.00;;;;;;5003330;28;25153;-70
2022/05/11 03:05:11;;;;;;;4.63;1.88;;;15.70;1.00;;;;;;5006292;28;25100;-70
2022/05/11 03:07:38;;;;;;;5.22;1.58;;;15.70;1.00;;;;;;5007661;28;25072;-68
2022/05/11 03:10:05;;;;;;;6.95;1.73;;;15.70;1.00;;;;;;5005362;28;25057;-69
2022/05/11 03:12:32;;;;;;;7.07;1.90;;;15.60;1.00;;;;;;5004676;28;25071;-72
2022/05/11 03:14:58;;;;;;;5.18;1.88;;;15.60;1.00;;;;;;5006169;28;25064;-69
2022/05/11 03:17:24;;;;;;;9.93;1.73;;;15.60;1.00;;;;;;5005709;28;25117;-69
2022/05/11 03:19:50;;;;;;;7.30;1.88;;;15.60;1.00;;;;;;5006671;28;25067;-70
2022/05/11 03:22:15;;;;;;;8.07;1.70;;;15.70;1.00;;;;;;5005704;28;25074;-70
2022/05/11 03:24:41;;;;;;;3.33;1.40;;;15.60;1.00;;;;;;5006024;28;25060;-70
2022/05/11 03:27:07;;;;;;;3.97;1.50;;;15.60;1.00;;;;;;5002913;28;25123;-71
2022/05/11 03:29:33;;;;;;;2.67;1.60;;;15.70;1.00;;;;;;5003491;28;25059;-69
2022/05/11 03:34:45;;;;;;;7.20;1.80;;;15.60;1.00;;;;;;5004443;28;25052;-69
2022/05/11 03:37:15;;;;;;;7.00;1.73;;;15.60;1.00;;;;;;5002926;28;25054;-69
2022/05/11 03:39:41;;;;;;;7.95;1.33;;;15.60;1.00;;;;;;5002283;28;25078;-71
2022/05/11 03:42:11;;;;;;;10.93;1.65;;;15.60;1.00;;;;;;5000587;28;25149;-69
2022/05/11 03:44:37;;;;;;;5.22;1.83;;;15.60;1.00;;;;;;5004311;28;25067;-68
2022/05/11 03:47:02;;;;;;;9.60;2.58;;;15.60;1.00;;;;;;5003424;28;25068;-70
2022/05/11 03:49:28;;;;;;;10.13;1.92;;;15.50;1.00;;;;;;5004081;28;25055;-70
2022/05/11 03:51:54;;;;;;;5.57;1.40;;;15.50;1.00;;;;;;5002689;28;25066;-70
2022/05/11 03:54:19;;;;;;;10.93;2.03;;;15.40;1.00;;;;;;5005952;28;25144;-70
2022/05/11 03:56:45;;;;;;;9.77;1.40;;;15.40;1.00;;;;;;5006653;28;25092;-70
2022/05/11 03:59:11;;;;;;;6.55;1.60;;;15.40;1.00;;;;;;5004783;28;25103;-71
2022/05/11 04:01:36;;;;;;;4.63;1.30;;;15.40;1.00;;;;;;5004724;28;25108;-69
2022/05/11 04:04:02;;;;;;;5.70;1.88;;;15.40;1.00;;;;;;5002600;28;25156;-69
2022/05/11 04:06:29;;;;;;;3.85;1.40;;;15.40;1.00;;;;;;5004473;28;25143;-69
2022/05/11 04:08:55;;;;;;;5.18;1.45;;;15.40;1.00;;;;;;5003754;28;25113;-69
2022/05/11 04:11:22;;;;;;;10.50;2.20;;;15.40;1.00;;;;;;5004808;28;25124;-70
2022/05/11 04:13:49;;;;;;;4.25;1.27;;;15.40;1.00;;;;;;5003419;28;25051;-68
2022/05/11 04:16:16;;;;;;;8.00;1.63;;;15.30;1.00;;;;;;5011237;28;25072;-70
2022/05/11 04:18:42;;;;;;;6.10;1.33;;;15.30;1.00;;;;;;5007671;28;25077;-70
2022/05/11 04:21:09;;;;;;;10.68;1.77;;;15.30;1.00;;;;;;5011653;28;25142;-70
2022/05/11 04:23:34;;;;;;;6.75;1.27;;;15.30;1.00;;;;;;5009912;28;25083;-71
2022/05/11 04:26:00;;;;;;;8.18;2.03;;;15.30;1.00;;;;;;5009778;28;25044;-70
2022/05/11 04:28:25;;;;;;;4.20;1.58;;;15.30;1.00;;;;;;5009629;28;25066;-71
2022/05/11 04:30:58;;;;;;;7.30;1.30;;;15.40;1.00;;;;;;5011301;28;25070;-69
2022/05/11 04:33:24;;;;;;;6.35;1.20;;;15.30;1.00;;;;;;5009545;28;25145;-69
2022/05/11 04:35:49;;;;;;;4.50;1.40;;;15.30;1.00;;;;;;5010423;28;25067;-70
2022/05/11 04:38:15;;;;;;;7.15;1.58;;;15.30;1.00;;;;;;5011089;28;25091;-70
2022/05/11 04:40:41;;;;;;;8.23;2.85;;;15.30;1.00;;;;;;5010151;28;25172;-70
2022/05/11 04:43:10;;;;;;;5.82;1.40;;;15.20;1.00;;;;;;5009514;28;25079;-70
2022/05/11 04:45:38;;;;;;;7.45;1.35;;;15.20;1.00;;;;;;5006350;28;25072;-70
2022/05/11 04:48:04;;;;;;;8.10;1.30;;;15.20;1.00;;;;;;5003304;28;25052;-72
2022/05/11 04:50:29;;;;;;;7.32;1.67;;;15.20;1.00;;;;;;5003970;28;25071;-72
2022/05/11 04:52:55;;;;;;;5.43;1.60;;;15.10;1.00;;;;;;5005770;28;25086;-71
2022/05/11 04:55:20;;;;;;;4.50;1.30;;;15.10;1.00;;;;;;5005955;28;25132;-69
2022/05/11 04:57:46;;;;;;;9.57;1.65;;;15.10;1.00;;;;;;5005154;28;25146;-72
2022/05/11 05:00:13;;;;;;;5.30;1.55;;;15.10;1.00;;;;;;5004332;28;25069;-71
2022/05/11 05:02:39;;;;;;;5.85;1.48;;;15.10;1.00;;;;;;5004181;28;25182;-73
2022/05/11 05:05:06;;;;;;;7.25;1.48;;;15.10;1.00;;;;;;5002504;28;25094;-71
2022/05/11 05:07:35;;;;;;;9.27;2.00;;;15.10;1.00;;;;;;5003304;28;25095;-71
2022/05/11 05:10:02;;;;;;;6.57;1.35;;;15.10;1.00;;;;;;5003930;28;25069;-73
2022/05/11 05:12:28;;;;;;;6.53;2.10;;;15.10;1.00;;;;;;5004840;28;25070;-72
2022/05/11 05:14:53;;;;;;;6.53;1.70;;;15.10;1.00;;;;;;5001276;28;25064;-70
2022/05/11 05:17:19;;;;;;;6.57;1.40;;;15.10;1.00;;;;;;5002400;28;25104;-72
2022/05/11 05:19:45;;;;;;;6.30;1.50;;;15.10;1.00;;;;;;5001464;28;25080;-73
2022/05/11 05:22:12;;;;;;;5.32;1.50;;;15.10;1.00;;;;;;4999919;28;25068;-71
2022/05/11 05:24:37;;;;;;;4.03;1.60;;;15.00;1.00;;;;;;5001376;28;25185;-73
2022/05/11 05:27:04;;;;;;;5.47;1.52;;;15.00;1.00;;;;;;5006164;28;25087;-73
2022/05/11 05:32:15;;;;;;;13.40;1.90;;;15.00;1.00;;;;;;5009386;28;25084;-70
2022/05/11 05:34:43;;;;;;;7.22;1.98;;;15.00;1.00;;;;;;5008573;28;25065;-70
2022/05/11 05:37:11;;;;;;;3.72;1.38;;;14.90;1.00;;;;;;5010093;28;25074;-71
2022/05/11 05:39:38;;;;;;;14.40;2.50;;;14.90;1.00;;;;;;5009792;28;25102;-74
2022/05/11 05:42:05;;;;;;;7.97;2.10;;;15.00;1.00;;;;;;5015548;28;25124;-73
2022/05/11 05:44:32;;;;;;;9.05;2.30;;;14.90;1.00;;;;;;5016828;28;25101;-73
2022/05/11 05:47:08;;;;;;;10.02;1.92;;;14.90;1.00;;;;;;5019200;28;25147;-70
2022/05/11 05:49:34;;;;;;;7.50;1.80;;;15.10;1.00;;;;;;5014146;28;25064;-72
2022/05/11 05:52:01;;;;;;;5.40;1.65;;;15.20;1.00;;;;;;5008320;28;25046;-72
2022/05/11 05:54:29;;;;;;;9.68;2.50;;;15.20;1.00;;;;;;5006401;28;25059;-71
2022/05/11 05:56:54;;;;;;;7.72;1.48;;;15.20;1.00;;;;;;5006199;28;25146;-71
2022/05/11 05:59:20;;;;;;;7.13;1.92;;;15.30;1.00;;;;;;5007461;28;25071;-70
2022/05/11 06:01:45;;;;;;;9.52;1.80;;;15.40;1.00;;;;;;5008822;28;25059;-72
2022/05/11 06:04:11;;;;;;;9.88;1.63;;;15.30;1.00;;;;;;5009381;28;25067;-69
2022/05/11 06:06:36;;;;;;;9.43;2.28;;;15.30;1.00;;;;;;5007558;28;25061;-71
2022/05/11 06:09:03;;;;;;;11.10;2.42;;;15.30;1.00;;;;;;5008766;28;25065;-71
2022/05/11 06:11:29;;;;;;;4.90;1.75;;;15.60;1.00;;;;;;5008459;28;25145;-70
2022/05/11 06:13:54;;;;;;;9.63;1.65;;;15.90;1.00;;;;;;5006939;28;25153;-70
2022/05/11 06:16:20;;;;;;;8.55;1.25;;;15.90;1.00;;;;;;5008850;28;25070;-71
2022/05/11 06:18:46;;;;;;;7.93;2.10;;;16.10;1.00;;;;;;5008244;28;25099;-73
2022/05/11 06:21:13;;;;;;;5.80;1.75;;;16.30;1.00;;;;;;5008271;28;25058;-71
2022/05/11 06:23:39;;;;;;;9.07;1.70;;;16.40;1.00;;;;;;5008324;28;25163;-72
2022/05/11 06:26:05;;;;;;;9.23;1.88;;;16.20;1.00;;;;;;5007010;28;25083;-72
2022/05/11 06:28:30;;;;;;;12.55;2.45;;;16.10;1.00;;;;;;5008031;28;25063;-73
2022/05/11 06:30:56;;;;;;;5.28;1.33;;;16.00;1.00;;;;;;5007749;28;25121;-71
2022/05/11 06:33:22;;;;;;;6.47;1.35;;;16.00;1.00;;;;;;5007044;28;25135;-69
2022/05/11 06:35:47;;;;;;;7.50;1.35;;;16.30;1.00;;;;;;5007462;28;25068;-72
2022/05/11 06:38:13;;;;;;;4.63;1.55;;;16.30;1.00;;;;;;5007935;28;25172;-71
2022/05/11 06:40:39;;;;;;;8.90;2.00;;;16.30;1.00;;;;;;5007348;28;25065;-74
2022/05/11 06:43:05;;;;;;;8.82;1.60;;;16.30;1.00;;;;;;5006710;28;25189;-71
2022/05/11 06:45:32;;;;;;;8.38;2.08;;;16.30;1.00;;;;;;5007249;28;25098;-71
2022/05/11 06:47:58;;;;;;;5.00;1.73;;;16.30;1.00;;;;;;5007551;28;25068;-71
2022/05/11 06:50:25;;;;;;;5.53;1.60;;;16.20;1.00;;;;;;5007750;28;25166;-71
2022/05/11 06:52:51;;;;;;;9.25;1.70;;;16.20;1.00;;;;;;5007668;28;25071;-70
2022/05/11 07:00:46;;;;;;;8.00;1.65;;;16.60;1.00;;;;;;5005862;28;25156;-70
2022/05/11 07:03:12;;;;;;;7.68;1.25;;;16.60;1.00;;;;;;5006070;28;25078;-70
2022/05/11 07:05:39;;;;;;;10.38;1.90;;;16.30;1.00;;;;;;5006467;28;25070;-70
2022/05/11 07:08:05;;;;;;;7.60;1.00;;;16.30;1.00;;;;;;5007912;28;25079;-70
2022/05/11 07:10:31;;;;;;;5.70;1.25;;;16.40;1.00;;;;;;5007488;28;25143;-72
2022/05/11 07:12:57;;;;;;;6.72;1.55;;;16.30;1.00;;;;;;5008183;28;25062;-70
2022/05/11 07:15:22;;;;;;;5.15;1.38;;;16.20;1.00;;;;;;5008864;28;25066;-71
2022/05/11 07:17:52;;;;;;;6.32;1.55;;;16.10;1.00;;;;;;5007940;28;25081;-70
2022/05/11 07:20:28;;;;;;;7.57;1.83;;;16.10;1.00;;;;;;5005655;28;25072;-72
2022/05/11 07:22:54;;;;;;;5.90;1.50;;;16.30;1.00;;;;;;5007195;28;25049;-71
2022/05/11 07:25:22;;;;;;;6.18;1.05;;;16.70;1.00;;;;;;5008238;28;25116;-73
2022/05/11 07:27:49;;;;;;;4.80;1.30;;;17.10;1.00;;;;;;5007941;28;25099;-71
2022/05/11 07:30:22;;;;;;;6.72;1.25;;;17.50;1.00;;;;;;5008376;28;25066;-70
2022/05/11 07:32:47;;;;;;;;;;;17.60;1.00;;;;;;5006956;28;25148;-70
2022/05/11 07:35:13;;;;;;;6.97;1.58;;;17.70;1.00;;;;;;5020901;28;24072;-73
2022/05/11 07:37:39;;;;;;;3.13;1.25;;;17.80;1.00;;;;;;5021365;28;25080;-70
2022/05/11 07:40:07;;;;;;;4.10;1.48;;;17.90;1.00;;;;;;5009388;28;25078;-69
2022/05/11 07:42:33;;;;;;;3.90;1.50;;;18.10;1.00;;;;;;5009477;28;25068;-70
2022/05/11 07:44:58;;;;;;;4.97;1.30;;;18.10;1.00;;;;;;5008112;28;25128;-72
2022/05/11 07:47:24;;;;;;;8.10;1.65;;;18.40;1.00;;;;;;5008930;28;25123;-75
2022/05/11 07:49:51;;;;;;;6.40;1.73;;;18.50;1.00;;;;;;5011356;28;25051;-72
2022/05/11 07:52:17;;;;;;;6.45;1.30;;;18.70;1.00;;;;;;5009971;28;25151;-69
2022/05/11 07:54:44;;;;;;;6.57;1.48;;;19.10;1.00;;;;;;5010443;28;25080;-70
2022/05/11 07:59:56;;;;;;;4.18;1.17;;;18.90;1.00;;;;;;5013657;28;25056;-73
2022/05/11 08:02:29;;;;;;;7.53;1.42;;;18.90;1.00;;;;;;5011520;28;25056;-71
2022/05/11 08:05:04;;;;;;;6.93;1.30;;;18.90;1.00;;;;;;5007510;28;25182;-71
2022/05/11 08:07:46;;;;;;;4.38;1.00;;;18.80;1.00;;;;;;5008408;28;25090;-71
2022/05/11 08:10:18;;;;;;;3.72;1.23;;;18.70;1.00;;;;;;5008522;28;25076;-71
2022/05/11 08:12:44;;;;;;;7.63;1.25;;;18.70;1.00;;;;;;5007557;28;25086;-73
2022/05/11 08:15:11;;;;;;;4.93;1.25;;;19.00;1.00;;;;;;5015365;28;25181;-69
2022/05/11 08:17:37;;;;;;;13.05;1.40;;;19.40;1.00;;;;;;5011771;28;25068;-70
2022/05/11 08:20:08;;;;;;;7.30;1.63;;;19.30;1.00;;;;;;5011161;28;25044;-70
2022/05/11 08:22:35;;;;;;;5.90;1.40;;;19.30;1.00;;;;;;5011279;28;25062;-71
2022/05/11 08:25:00;;;;;;;7.22;1.58;;;19.10;1.00;;;;;;5009038;28;25064;-71
2022/05/11 08:27:30;;;;;;;4.07;1.35;;;19.00;1.00;;;;;;5009220;28;25074;-70
2022/05/11 08:35:29;;;;;;;4.72;1.63;;;19.00;1.00;;;;;;5011574;28;25144;-72
2022/05/11 08:37:55;;;;;;;8.63;1.80;;;19.10;1.00;;;;;;5013578;28;25134;-67
2022/05/11 08:40:39;;;;;;;3.10;1.35;;;19.40;1.00;;;;;;5019436;28;25073;-69
2022/05/11 08:43:12;;;;;;;7.00;1.30;;;19.60;1.00;;;;;;5027729;28;25144;-73
2022/05/11 08:46:02;;;;;;;8.88;1.42;;;19.30;1.00;;;;;;5027584;28;25082;-72
2022/05/11 08:48:45;;;;;;;8.85;1.50;;;19.30;1.00;;;;;;5025141;28;25076;-70
2022/05/11 08:51:21;;;;;;;7.97;1.35;;;19.50;1.00;;;;;;5027729;28;25095;-75
2022/05/11 08:53:55;;;;;;;6.43;1.80;;;19.60;1.00;;;;;;5029749;28;25132;-72
2022/05/11 08:56:23;;;;;;;10.82;2.58;;;19.50;1.00;;;;;;5029934;28;25075;-71
2022/05/11 08:58:54;;;;;;;7.35;1.50;;;19.50;1.00;;;;;;5028462;28;25109;-74
2022/05/11 09:01:29;;;;;;;4.93;1.77;;;19.60;1.00;;;;;;5034095;28;25048;-71
2022/05/11 09:03:56;;;;;;;8.68;1.23;;;19.70;1.00;;;;;;5032443;28;25065;-73
2022/05/11 09:06:27;;;;;;;7.03;1.70;;;20.00;1.00;;;;;;5033873;28;25048;-75
2022/05/11 09:08:54;;;;;;;10.45;1.92;;;20.00;1.00;;;;;;5033282;28;25061;-73
2022/05/11 09:11:27;;;;;;;11.32;1.90;;;20.00;1.00;;;;;;5036314;28;25071;-73
2022/05/11 09:13:56;;;;;;;4.13;1.27;;;19.90;1.00;;;;;;5035081;28;25070;-73
2022/05/11 09:16:45;;;;;;;6.15;1.63;;;19.90;1.00;;;;;;5030174;28;25074;-72
2022/05/11 09:19:32;;;;;;;6.97;1.92;;;19.90;1.00;;;;;;5030997;28;25081;-73
2022/05/11 09:22:05;;;;;;;9.50;1.70;;;19.80;1.00;;;;;;5034470;28;25091;-73
2022/05/11 09:24:37;;;;;;;7.88;1.77;;;19.80;1.00;;;;;;5034480;28;25054;-71
2022/05/11 09:27:12;;;;;;;9.40;2.15;;;19.40;1.00;;;;;;5034111;28;25074;-73
2022/05/11 09:29:43;;;;;;;12.60;2.90;;;19.50;1.00;;;;;;5028402;28;25109;-75
2022/05/11 09:32:37;;;;;;;8.63;1.80;;;19.80;1.00;;;;;;5028180;28;25055;-70
2022/05/11 09:35:25;;;;;;;8.13;1.70;;;20.20;1.00;;;;;;5029797;28;25078;-75
2022/05/11 09:38:01;;;;;;;7.95;2.08;;;20.60;1.00;;;;;;5034141;28;25062;-73
2022/05/11 09:40:29;;;;;;;11.35;1.73;;;20.90;1.00;;;;;;5036815;28;25069;-72
2022/05/11 09:42:59;;;;;;;9.63;1.80;;;20.70;1.00;;;;;;5036117;28;25089;-75
2022/05/11 09:45:49;;;;;;;11.27;1.95;;;20.50;1.00;;;;;;5036051;28;25068;-72
2022/05/11 09:48:23;;;;;;;10.55;2.67;;;20.50;1.00;;;;;;5030591;28;25078;-73
2022/05/11 09:50:55;;;;;;;8.38;2.42;;;20.70;1.00;;;;;;5034110;28;25088;-71
2022/05/11 09:53:37;;;;;;;10.20;1.58;;;20.60;1.00;;;;;;5032839;28;25131;-72
2022/05/11 09:56:24;;;;;;;7.35;1.17;;;20.90;1.00;;;;;;5031196;28;25064;-75
2022/05/11 09:58:49;;;;;;;5.65;1.40;;;21.20;1.00;;;;;;5032095;28;25071;-73
2022/05/11 10:01:29;;;;;;;5.95;1.23;;;21.30;1.00;;;;;;5031150;28;25068;-73
2022/05/11 10:04:05;;;;;;;6.55;1.17;;;21.40;1.00;;;;;;5026269;28;25110;-71
2022/05/11 10:06:37;;;;;;;9.65;1.92;;;21.20;1.00;;;;;;5026365;28;25051;-73
2022/05/11 10:09:05;;;;;;;2.90;1.02;;;21.40;1.00;;;;;;5017147;28;25056;-70
2022/05/11 10:11:47;;;;;;;5.47;1.40;;;21.20;1.00;;;;;;5027975;28;25135;-74
2022/05/11 10:21:50;;;;;;;7.63;1.23;;;21.10;1.00;;;;;;5023280;28;25131;-72
2022/05/11 10:23:09;;;;;;;4.25;1.20;;;21.20;1.00;;;;;;5014263;28;25071;-72
2022/05/11 10:25:40;;;;;;;4.10;1.20;;;21.30;1.00;;;;;;5016699;28;25058;-71
2022/05/11 10:28:15;;;;;;;5.80;1.30;;;21.50;1.00;;;;;;5017177;28;25076;-75
2022/05/11 10:30:58;;;;;;;5.47;1.70;;;21.30;1.00;;;;;;5015010;28;25136;-73
2022/05/11 10:34:02;;;;;;;4.32;1.40;;;21.30;1.00;;;;;;5013730;28;25063;-70
2022/05/11 10:36:47;;;;;;;5.70;1.63;;;21.50;1.00;;;;;;5011849;28;25073;-71
2022/05/11 10:39:34;;;;;;;5.63;1.52;;;21.60;1.00;;;;;;5021912;28;25070;-73
2022/05/11 10:42:13;;;;;;;3.80;1.63;;;21.90;1.00;;;;;;5020910;28;25063;-70
2022/05/11 10:44:45;;;;;;;6.22;1.73;;;22.00;1.00;;;;;;5015237;28;25065;-69
2022/05/11 10:47:36;;;;;;;4.90;2.20;;;21.80;1.00;;;;;;5017380;28;25075;-71
2022/05/11 10:50:26;;;;;;;6.80;1.77;;;21.60;1.00;;;;;;5012976;28;25158;-71
2022/05/11 10:53:01;;;;;;;6.18;1.50;;;21.40;1.00;;;;;;5019976;28;25146;-70
2022/05/11 10:56:04;;;;;;;7.78;2.05;;;21.40;1.00;;;;;;5024267;28;25050;-72
2022/05/11 10:58:56;;;;;;;8.70;1.92;;;21.80;1.00;;;;;;5029931;28;25078;-71
2022/05/11 11:01:25;;;;;;;15.93;1.75;;;21.80;1.00;;;;;;5022508;28;25067;-73
2022/05/11 11:04:12;;;;;;;5.22;1.58;;;21.60;1.00;;;;;;5029051;28;25092;-73
2022/05/11 11:07:11;;;;;;;6.97;1.80;;;21.00;1.00;;;;;;5025861;28;25078;-70
2022/05/11 11:10:11;;;;;;;9.35;1.85;;;21.90;1.00;;;;;;5028442;28;25111;-72
2022/05/11 11:12:51;;;;;;;7.47;2.38;;;22.30;1.00;;;;;;5029567;28;25086;-77
2022/05/11 11:15:21;;;;;;;9.77;2.17;;;22.70;1.00;;;;;;5028238;28;25055;-74
2022/05/11 11:17:48;;;;;;;6.40;1.80;;;22.40;1.00;;;;;;5026215;28;25061;-73
2022/05/11 11:20:18;;;;;;;6.07;2.20;;;22.30;1.00;;;;;;5031704;28;25085;-72
2022/05/11 11:23:27;;;;;;;7.43;2.50;;;22.40;1.00;;;;;;5029661;28;25074;-77
2022/05/11 11:26:01;;;;;;;7.88;2.92;;;22.10;1.00;;;;;;5032799;28;25104;-73
2022/05/11 11:28:51;;;;;;;9.38;2.03;;;21.90;1.00;;;;;;5031972;28;25068;-75
2022/05/11 11:31:22;;;;;;;8.65;2.90;;;21.90;1.00;;;;;;5029852;28;25094;-76
2022/05/11 11:33:57;;;;;;;9.52;2.83;;;21.70;1.00;;;;;;5032281;28;25056;-77
2022/05/11 11:36:28;;;;;;;5.57;2.25;;;21.80;1.00;;;;;;5032552;28;25046;-77
2022/05/11 11:38:58;;;;;;;7.47;2.53;;;22.60;1.00;;;;;;5030004;28;25060;-76
2022/05/11 11:41:28;;;;;;;10.32;2.10;;;22.70;1.00;;;;;;5029183;28;25050;-78
2022/05/11 11:44:00;;;;;;;5.03;2.05;;;22.90;1.00;;;;;;5027516;28;25076;-74
2022/05/11 11:46:41;;;;;;;10.93;2.30;;;23.00;1.00;;;;;;5028270;28;25071;-75
2022/05/11 11:49:18;;;;;;;8.55;2.60;;;23.20;1.00;;;;;;5028911;28;25075;-74
2022/05/11 11:52:00;;;;;;;9.38;3.03;;;22.90;1.00;;;;;;5029308;28;25069;-76
2022/05/11 11:54:37;;;;;;;16.13;2.83;;;22.80;1.00;;;;;;5029823;28;25062;-79
2022/05/11 11:57:23;;;;;;;7.70;2.90;;;22.80;1.00;;;;;;5022077;28;25096;-75
2022/05/11 11:59:53;;;;;;;10.95;2.42;;;22.70;1.00;;;;;;5017172;28;25141;-70
2022/05/11 12:02:29;;;;;;;12.15;2.78;;;23.30;1.00;;;;;;5020277;28;25064;-72
2022/05/11 12:04:58;;;;;;;8.82;2.40;;;23.30;1.00;;;;;;5013036;28;25122;-72
2022/05/11 12:16:06;;;;;;;11.88;3.63;;;22.80;1.00;;;;;;5012264;28;25060;-72
2022/05/11 12:18:35;;;;;;;12.20;3.10;;;22.90;1.00;;;;;;5010923;28;25061;-74
2022/05/11 12:21:04;;;;;;;8.63;3.13;;;23.30;1.00;;;;;;5008834;28;25067;-72
2022/05/11 12:23:34;;;;;;;9.50;3.25;;;23.80;1.00;;;;;;5007670;28;25124;-75
2022/05/11 12:26:05;;;;;;;14.25;3.13;;;23.90;1.00;;;;;;5005922;28;25054;-75
2022/05/11 12:28:41;;;;;;;14.02;3.10;;;23.70;1.00;;;;;;5007701;28;25065;-71
2022/05/11 12:31:07;;;;;;;12.25;3.40;;;23.80;1.00;;;;;;5017452;28;25061;-76
2022/05/11 12:33:36;;;;;;;17.60;5.20;;;23.70;1.00;;;;;;5022187;28;25062;-73
2022/05/11 12:36:03;;;;;;;10.52;3.78;;;23.40;1.00;;;;;;5008491;28;25078;-70
2022/05/11 12:38:38;;;;;;;10.98;3.10;;;23.30;1.00;;;;;;5008020;28;25055;-74
2022/05/11 12:41:13;;;;;;;11.25;3.10;;;23.40;1.00;;;;;;5007224;28;25066;-73
2022/05/11 12:43:40;;;;;;;12.55;3.83;;;23.80;1.00;;;;;;5007659;28;25086;-74
2022/05/11 12:46:13;;;;;;;11.35;3.80;;;23.60;1.00;;;;;;5007306;28;25099;-75
2022/05/11 12:48:44;;;;;;;13.27;3.88;;;23.30;1.00;;;;;;5006901;28;25104;-73
2022/05/11 12:51:13;;;;;;;15.15;4.85;;;23.60;1.00;;;;;;5007989;28;25059;-71
2022/05/11 12:53:48;;;;;;;12.23;3.97;;;23.50;1.00;;;;;;5007501;28;25100;-74
2022/05/11 12:56:27;;;;;;;10.90;3.13;;;23.50;1.00;;;;;;5008538;28;25049;-74
2022/05/11 12:58:56;;;;;;;12.23;3.92;;;23.60;1.00;;;;;;5012136;28;25143;-72
2022/05/11 13:01:25;;;;;;;13.02;4.13;;;23.60;1.00;;;;;;5014942;28;25073;-76
2022/05/11 13:03:52;;;;;;;14.35;4.47;;;23.50;1.00;;;;;;5009284;28;25179;-75
2022/05/11 13:06:21;;;;;;;12.55;4.10;;;22.80;1.00;;;;;;5007154;28;25087;-72
2022/05/11 13:08:49;;;;;;;19.35;3.70;;;22.80;1.00;;;;;;5006977;28;25067;-75
2022/05/11 13:11:22;;;;;;;15.18;3.88;;;23.20;1.00;;;;;;5008012;28;25071;-74
2022/05/11 13:13:52;;;;;;;13.15;3.78;;;23.10;1.00;;;;;;5007582;28;25101;-74
2022/05/11 13:16:31;;;;;;;13.88;3.28;;;23.40;1.00;;;;;;5008887;28;25051;-72
2022/05/11 13:19:07;;;;;;;20.83;4.95;;;23.20;1.00;;;;;;5009687;28;25112;-72
2022/05/11 13:21:36;;;;;;;13.27;4.00;;;23.10;1.00;;;;;;5009948;28;25070;-71
2022/05/11 13:24:04;;;;;;;15.50;4.45;;;22.70;1.00;;;;;;5012294;28;25067;-71
2022/05/11 13:26:37;;;;;;;14.90;3.50;;;22.50;1.00;;;;;;5016941;28;25082;-71
2022/05/11 13:29:20;;;;;;;17.30;3.65;;;22.50;1.00;;;;;;5024259;28;25079;-73
2022/05/11 13:32:00;;;;;;;16.75;4.50;;;23.00;1.00;;;;;;5028740;28;25090;-73
2022/05/11 13:34:39;;;;;;;16.88;4.20;;;23.00;1.00;;;;;;5031367;28;25060;-77
2022/05/11 13:37:17;;;;;;;16.65;4.63;;;22.30;1.00;;;;;;5025654;28;25089;-77
2022/05/11 13:39:49;;;;;;;17.05;4.50;;;22.60;1.00;;;;;;5017486;28;25042;-74
2022/05/11 13:42:21;;;;;;;12.53;4.13;;;22.60;1.00;;;;;;5011406;28;25078;-74
2022/05/11 13:45:04;;;;;;;15.05;4.13;;;22.70;1.00;;;;;;5008957;28;25172;-74
2022/05/11 13:50:27;;;;;;;11.27;4.32;;;22.70;1.00;;;;;;5010471;28;25057;-75
2022/05/11 13:53:02;;;;;;;14.43;3.88;;;22.60;1.00;;;;;;5012351;28;25153;-71